^^
Saratoga-Weather Station Historical Data
Daily Summary for April 22, 2020 Units:  Metric    English   Both
Daily Weekly Monthly Yearly Custom
  High: Low: Average:
Temperature: 20.6 °C 12.8 °C 16.8 °C
Dew Point: 15.3 °C 11.8 °C 13.6 °C
Humidity: 96% 66% 82%
Wind Speed: 13km/h 0km/h 1.9km/h
Wind Gust: 20.9km/h - -
Wind- - SW
Pressure: 1013.5 hPa 1010.2 hPa -
Precipitation: 1.0 mm    
Historical Graphs
 
 
Tabular Data for April 22, 2020
Time Temperature Dew Point Pressure Wind Wind Speed Wind Gust Humidity Rainfall Rate (Hourly) solar
00:01 17.4 °C 13.7 °C 1010.2 hPa NE 1.4 km/h 4.8 km/h 79% 0.0 mm 0 W/m2
00:06 17.3 °C 13.6 °C 1010.2 hPa North 6.4 km/h 14.5 km/h 79% 0.0 mm 0 W/m2
00:11 17.3 °C 13.6 °C 1010.5 hPa NW 3.2 km/h 8 km/h 79% 0.0 mm 0 W/m2
00:16 17.4 °C 13.5 °C 1010.5 hPa NW 3.2 km/h 9.7 km/h 78% 0.0 mm 0 W/m2
00:21 17.3 °C 13.4 °C 1010.5 hPa North 4.7 km/h 4.8 km/h 78% 0.0 mm 0 W/m2
00:26 17.3 °C 13.4 °C 1010.5 hPa NNW 4.7 km/h 6.4 km/h 78% 0.0 mm 0 W/m2
00:31 17.3 °C 13.4 °C 1010.5 hPa WNW 1.4 km/h 9.7 km/h 78% 0.0 mm 0 W/m2
00:36 17.2 °C 13.3 °C 1010.5 hPa WNW 3.2 km/h 9.7 km/h 78% 0.0 mm 0 W/m2
00:41 17.2 °C 13.3 °C 1010.5 hPa WNW 1.4 km/h 11.3 km/h 78% 0.0 mm 0 W/m2
00:46 17.3 °C 13.4 °C 1010.5 hPa Calm   6.4 km/h 78% 0.0 mm 0 W/m2
00:51 17.3 °C 13.4 °C 1010.5 hPa Calm   3.2 km/h 78% 0.0 mm 0 W/m2
00:56 17.3 °C 13.2 °C 1010.5 hPa WNW 4.7 km/h 9.7 km/h 77% 0.0 mm 0 W/m2
01:01 17.3 °C 13.2 °C 1010.8 hPa West 3.2 km/h 6.4 km/h 77% 0.0 mm 0 W/m2
01:06 17.3 °C 13.2 °C 1010.5 hPa WNW 1.4 km/h 9.7 km/h 77% 0.0 mm 0 W/m2
01:11 17.2 °C 13.3 °C 1010.5 hPa NNW 1.4 km/h 6.4 km/h 78% 0.0 mm 0 W/m2
01:16 17.2 °C 13.3 °C 1010.2 hPa NE 4.7 km/h 4.8 km/h 78% 0.0 mm 0 W/m2
01:21 17.2 °C 13.3 °C 1010.8 hPa NNW 4.7 km/h 4.8 km/h 78% 0.0 mm 0 W/m2
01:26 17.2 °C 13.3 °C 1010.8 hPa West 4.7 km/h 6.4 km/h 78% 0.0 mm 0 W/m2
01:31 17.1 °C 13.2 °C 1010.8 hPa Calm   8 km/h 78% 0.0 mm 0 W/m2
01:36 17.1 °C 13.4 °C 1010.8 hPa WSW 4.7 km/h 14.5 km/h 79% 0.0 mm 0 W/m2
01:41 17.1 °C 13.4 °C 1010.8 hPa WNW 6.4 km/h 6.4 km/h 79% 0.0 mm 0 W/m2
01:46 17 °C 13.3 °C 1010.8 hPa Calm   14.5 km/h 79% 0.0 mm 0 W/m2
01:51 16.9 °C 13.4 °C 1010.8 hPa NW 3.2 km/h 4.8 km/h 80% 0.0 mm 0 W/m2
01:56 16.8 °C 13.5 °C 1010.8 hPa West 3.2 km/h 6.4 km/h 81% 0.0 mm 0 W/m2
02:01 16.7 °C 13.4 °C 1010.8 hPa NNW 1.4 km/h 4.8 km/h 81% 0.0 mm 0 W/m2
02:06 16.6 °C 13.5 °C 1010.8 hPa Calm   6.4 km/h 82% 0.0 mm 0 W/m2
02:11 16.5 °C 13.4 °C 1010.8 hPa NNW 1.4 km/h 3.2 km/h 82% 0.0 mm 0 W/m2
02:16 16.4 °C 13.3 °C 1010.8 hPa Calm   1.6 km/h 82% 0.0 mm 0 W/m2
02:21 16.3 °C 13.4 °C 1010.8 hPa Calm   1.6 km/h 83% 0.0 mm 0 W/m2
02:26 16.2 °C 13.3 °C 1011.2 hPa Calm   3.2 km/h 83% 0.0 mm 0 W/m2
02:32 16.2 °C 13.3 °C 1011.2 hPa NW 1.4 km/h 1.6 km/h 83% 0.0 mm 0 W/m2
02:37 16.2 °C 13.3 °C 1011.2 hPa North 3.2 km/h 4.8 km/h 83% 0.0 mm 0 W/m2
02:42 16.2 °C 13.3 °C 1011.2 hPa Calm   1.6 km/h 83% 0.0 mm 0 W/m2
02:47 16.2 °C 13.3 °C 1011.5 hPa Calm   3.2 km/h 83% 0.0 mm 0 W/m2
02:52 16.2 °C 13.3 °C 1011.5 hPa West 1.4 km/h 6.4 km/h 83% 0.0 mm 0 W/m2
02:57 16.3 °C 13.2 °C 1011.5 hPa Calm   4.8 km/h 82% 0.0 mm 0 W/m2
03:02 16.2 °C 13.1 °C 1011.5 hPa North 3.2 km/h 6.4 km/h 82% 0.0 mm 0 W/m2
03:07 16.1 °C 13 °C 1011.5 hPa NNE 3.2 km/h 6.4 km/h 82% 0.0 mm 0 W/m2
03:12 16.1 °C 13.2 °C 1011.2 hPa ESE 1.4 km/h 3.2 km/h 83% 0.0 mm 0 W/m2
03:17 15.9 °C 13 °C 1011.2 hPa Calm   1.6 km/h 83% 0.0 mm 0 W/m2
03:22 15.8 °C 12.9 °C 1011.2 hPa Calm   1.6 km/h 83% 0.0 mm 0 W/m2
03:27 15.6 °C 12.7 °C 1011.2 hPa Calm     83% 0.0 mm 0 W/m2
03:32 15.4 °C 12.7 °C 1011.2 hPa NNW 4.7 km/h 4.8 km/h 84% 0.0 mm 0 W/m2
03:37 15.4 °C 12.9 °C 1011.5 hPa NW 3.2 km/h 3.2 km/h 85% 0.0 mm 0 W/m2
03:42 15.3 °C 12.8 °C 1011.2 hPa Calm     85% 0.0 mm 0 W/m2
03:47 15.3 °C 12.8 °C 1011.2 hPa NW 1.4 km/h 6.4 km/h 85% 0.0 mm 0 W/m2
03:52 15.5 °C 13 °C 1011.5 hPa Calm   1.6 km/h 85% 0.0 mm 0 W/m2
03:57 15.4 °C 12.7 °C 1011.5 hPa NNW 3.2 km/h 6.4 km/h 84% 0.0 mm 0 W/m2
04:02 15.3 °C 12.8 °C 1011.5 hPa Calm   1.6 km/h 85% 0.0 mm 0 W/m2
04:07 15.3 °C 12.8 °C 1011.5 hPa NW 1.4 km/h 1.6 km/h 85% 0.0 mm 0 W/m2
04:12 15.5 °C 12.8 °C 1011.5 hPa NNW 1.4 km/h 4.8 km/h 84% 0.0 mm 0 W/m2
04:17 15.7 °C 12.8 °C 1011.5 hPa Calm   3.2 km/h 83% 0.0 mm 0 W/m2
04:22 15.8 °C 12.7 °C 1011.5 hPa NW 1.4 km/h 3.2 km/h 82% 0.0 mm 0 W/m2
04:27 15.9 °C 12.8 °C 1011.2 hPa South 1.4 km/h 3.2 km/h 82% 0.0 mm 0 W/m2
04:32 15.9 °C 12.8 °C 1011.2 hPa WSW 1.4 km/h 4.8 km/h 82% 0.0 mm 0 W/m2
04:37 15.9 °C 12.8 °C 1011.2 hPa Calm   1.6 km/h 82% 0.0 mm 0 W/m2
04:42 15.8 °C 12.7 °C 1011.2 hPa WNW 1.4 km/h 4.8 km/h 82% 0.0 mm 0 W/m2
04:47 15.8 °C 12.7 °C 1011.2 hPa Calm     82% 0.0 mm 0 W/m2
04:52 15.7 °C 12.8 °C 1011.5 hPa Calm     83% 0.0 mm 0 W/m2
04:57 15.5 °C 12.6 °C 1011.5 hPa SSE 1.4 km/h 9.7 km/h 83% 0.0 mm 0 W/m2
05:02 15.6 °C 12.5 °C 1011.5 hPa North 1.4 km/h 3.2 km/h 82% 0.0 mm 0 W/m2
05:07 15.8 °C 12.5 °C 1011.5 hPa WSW 1.4 km/h 4.8 km/h 81% 0.0 mm 0 W/m2
05:12 15.8 °C 12.4 °C 1011.5 hPa NW 1.4 km/h 1.6 km/h 80% 0.0 mm 0 W/m2
05:17 15.9 °C 12.6 °C 1011.5 hPa NE 1.4 km/h 4.8 km/h 81% 0.0 mm 0 W/m2
05:22 15.8 °C 12.4 °C 1011.5 hPa Calm   6.4 km/h 80% 0.0 mm 0 W/m2
05:27 15.9 °C 12.5 °C 1011.5 hPa Calm   1.6 km/h 80% 0.0 mm 0 W/m2
05:32 16.1 °C 12.5 °C 1011.5 hPa Calm   6.4 km/h 79% 0.0 mm 0 W/m2
05:38 16 °C 12.4 °C 1011.2 hPa Calm   4.8 km/h 79% 0.0 mm 0 W/m2
05:43 16 °C 12.4 °C 1011.5 hPa NNW 1.4 km/h 4.8 km/h 79% 0.0 mm 0 W/m2
05:48 15.9 °C 12.5 °C 1011.5 hPa Calm   1.6 km/h 80% 0.0 mm 0 W/m2
05:53 15.8 °C 12.2 °C 1011.5 hPa Calm   4.8 km/h 79% 0.0 mm 0 W/m2
05:58 15.8 °C 12.2 °C 1011.9 hPa NE 3.2 km/h 3.2 km/h 79% 0.0 mm 0 W/m2
06:03 15.8 °C 12.2 °C 1011.9 hPa Calm   1.6 km/h 79% 0.0 mm 0 W/m2
06:08 15.8 °C 12.2 °C 1011.9 hPa West 1.4 km/h 3.2 km/h 79% 0.0 mm 0 W/m2
06:13 15.8 °C 12.2 °C 1011.9 hPa NW 1.4 km/h 3.2 km/h 79% 0.0 mm 0 W/m2
06:18 15.8 °C 12.2 °C 1012.2 hPa WNW 1.4 km/h 6.4 km/h 79% 0.0 mm 0 W/m2
06:23 16 °C 12.2 °C 1012.2 hPa WNW 3.2 km/h 6.4 km/h 78% 0.0 mm 0 W/m2
06:28 16.3 °C 12.1 °C 1012.2 hPa NW 7.9 km/h 11.3 km/h 76% 0.0 mm 0 W/m2
06:33 16.6 °C 12.4 °C 1012.2 hPa NNE 1.4 km/h 4.8 km/h 76% 0.0 mm 0 W/m2
06:38 16.6 °C 12.1 °C 1012.2 hPa NNE 1.4 km/h 3.2 km/h 75% 0.0 mm 0 W/m2
06:43 16.5 °C 12.3 °C 1012.2 hPa NNW 13 km/h 12.9 km/h 76% 0.0 mm 0 W/m2
06:48 16.3 °C 12.5 °C 1012.2 hPa WNW 13 km/h 17.7 km/h 78% 0.0 mm 0 W/m2
06:53 16.1 °C 12.5 °C 1011.9 hPa NW 6.4 km/h 8 km/h 79% 0.0 mm 0 W/m2
06:58 15.8 °C 12.4 °C 1011.9 hPa WSW 6.4 km/h 6.4 km/h 80% 0.0 mm 0 W/m2
07:03 15.7 °C 12.4 °C 1011.9 hPa NW 3.2 km/h 9.7 km/h 81% 0.0 mm 0 W/m2
07:08 15.6 °C 12.5 °C 1011.9 hPa Calm   6.4 km/h 82% 0.0 mm 0 W/m2
07:13 15.4 °C 12.3 °C 1012.2 hPa North 3.2 km/h 4.8 km/h 82% 0.0 mm 0 W/m2
07:18 15.4 °C 12.5 °C 1011.9 hPa NNE 1.4 km/h 8 km/h 83% 0.0 mm 0 W/m2
07:23 15.2 °C 12.5 °C 1011.9 hPa NW 1.4 km/h 6.4 km/h 84% 0.2 mm 0 W/m2
07:28 15.1 °C 12.6 °C 1011.5 hPa NW 4.7 km/h 6.4 km/h 85% 0.5 mm 0 W/m2
07:33 14.9 °C 12.6 °C 1011.9 hPa NW 1.4 km/h 3.2 km/h 86% 0.8 mm 0 W/m2
07:38 14.8 °C 12.7 °C 1011.9 hPa NW 3.2 km/h 3.2 km/h 87% 0.8 mm 0 W/m2
07:43 14.7 °C 12.7 °C 1011.9 hPa WNW 1.4 km/h 3.2 km/h 88% 0.8 mm 0 W/m2
07:48 14.6 °C 12.8 °C 1011.9 hPa SW 3.2 km/h 3.2 km/h 89% 0.8 mm 0 W/m2
07:53 14.4 °C 12.8 °C 1011.9 hPa Calm   3.2 km/h 90% 0.8 mm 0 W/m2
07:58 14.3 °C 12.7 °C 1011.9 hPa Calm   1.6 km/h 90% 0.8 mm 0 W/m2
08:03 14.2 °C 12.8 °C 1011.9 hPa Calm     91% 0.8 mm 0 W/m2
08:08 14.1 °C 12.7 °C 1011.9 hPa Calm     91% 1.0 mm 0 W/m2
08:13 13.9 °C 12.6 °C 1012.2 hPa Calm     92% 1.0 mm 0 W/m2
08:18 13.8 °C 12.5 °C 1012.2 hPa Calm   1.6 km/h 92% 1.0 mm 5 W/m2
08:23 13.7 °C 12.4 °C 1012.2 hPa Calm   1.6 km/h 92% 0.8 mm 9 W/m2
08:28 13.5 °C 12.2 °C 1012.5 hPa Calm     92% 0.5 mm 12 W/m2
08:33 13.4 °C 12.1 °C 1012.5 hPa Calm     92% 0.2 mm 14 W/m2
08:38 13.3 °C 12.2 °C 1012.5 hPa Calm     93% 0.2 mm 19 W/m2
08:43 13.1 °C 12 °C 1012.5 hPa Calm     93% 0.2 mm 23 W/m2
08:48 13 °C 11.9 °C 1012.5 hPa Calm     93% 0.2 mm 26 W/m2
08:53 12.9 °C 11.8 °C 1012.9 hPa Calm     93% 0.2 mm 25 W/m2
08:58 12.9 °C 11.8 °C 1012.9 hPa Calm     93% 0.2 mm 28 W/m2
09:03 12.8 °C 11.9 °C 1012.9 hPa Calm     94% 0.2 mm 42 W/m2
09:08 12.8 °C 11.9 °C 1012.9 hPa Calm     94% 0.0 mm 42 W/m2
09:13 12.8 °C 11.9 °C 1013.2 hPa Calm     94% 0.0 mm 56 W/m2
09:18 12.8 °C 11.9 °C 1013.2 hPa Calm     94% 0.0 mm 47 W/m2
09:23 12.8 °C 11.9 °C 1013.2 hPa Calm     94% 0.0 mm 40 W/m2
09:28 12.8 °C 12 °C 1013.5 hPa Calm     95% 0.0 mm 37 W/m2
09:33 12.9 °C 12.1 °C 1013.5 hPa Calm     95% 0.0 mm 69 W/m2
09:38 12.9 °C 12.1 °C 1013.5 hPa Calm     95% 0.0 mm 47 W/m2
09:43 13 °C 12.2 °C 1013.5 hPa Calm     95% 0.0 mm 70 W/m2
09:48 13.1 °C 12.3 °C 1013.5 hPa Calm     95% 0.0 mm 120 W/m2
09:53 13.3 °C 12.5 °C 1013.5 hPa Calm     95% 0.0 mm 155 W/m2
09:58 13.4 °C 12.6 °C 1013.5 hPa Calm     95% 0.0 mm 243 W/m2
10:03 13.7 °C 13.1 °C 1013.5 hPa Calm   1.6 km/h 96% 0.0 mm 197 W/m2
10:08 13.8 °C 13.2 °C 1013.5 hPa Calm     96% 0.0 mm 95 W/m2
10:13 14 °C 13.4 °C 1013.5 hPa Calm     96% 0.0 mm 70 W/m2
10:19 14.2 °C 13.4 °C 1013.5 hPa Calm     95% 0.0 mm 179 W/m2
10:24 14.3 °C 13.5 °C 1013.5 hPa Calm   3.2 km/h 95% 0.0 mm 56 W/m2
10:29 14.4 °C 13.6 °C 1013.5 hPa Calm   1.6 km/h 95% 0.0 mm 104 W/m2
10:34 14.6 °C 13.6 °C 1013.5 hPa ENE 1.4 km/h 3.2 km/h 94% 0.0 mm 91 W/m2
10:39 14.7 °C 13.7 °C 1013.5 hPa East 1.4 km/h 3.2 km/h 94% 0.0 mm 151 W/m2
10:44 14.9 °C 13.9 °C 1013.5 hPa Calm     94% 0.0 mm 262 W/m2
10:49 15.2 °C 14.1 °C 1013.5 hPa Calm   1.6 km/h 93% 0.0 mm 141 W/m2
10:54 15.3 °C 14 °C 1013.5 hPa ESE 3.2 km/h 4.8 km/h 92% 0.0 mm 91 W/m2
10:59 15.4 °C 13.9 °C 1013.5 hPa Calm     91% 0.0 mm 65 W/m2
11:04 15.4 °C 13.9 °C 1013.5 hPa Calm   3.2 km/h 91% 0.0 mm 83 W/m2
11:09 15.5 °C 13.9 °C 1013.5 hPa SE 1.4 km/h 1.6 km/h 90% 0.0 mm 56 W/m2
11:14 15.5 °C 14 °C 1013.5 hPa NE 3.2 km/h 3.2 km/h 91% 0.0 mm 54 W/m2
11:19 15.5 °C 13.9 °C 1013.5 hPa Calm   3.2 km/h 90% 0.0 mm 54 W/m2
11:24 15.7 °C 14.1 °C 1013.5 hPa ESE 3.2 km/h 4.8 km/h 90% 0.0 mm 58 W/m2
11:29 15.8 °C 13.8 °C 1013.5 hPa NE 6.4 km/h 8 km/h 88% 0.0 mm 60 W/m2
11:34 16.2 °C 13.9 °C 1013.2 hPa SSE 3.2 km/h 6.4 km/h 86% 0.0 mm 135 W/m2
11:39 16.5 °C 14 °C 1013.2 hPa NW 3.2 km/h 3.2 km/h 85% 0.0 mm 62 W/m2
11:44 16.8 °C 13.9 °C 1013.2 hPa NNE 1.4 km/h 8 km/h 83% 0.0 mm 67 W/m2
11:49 17.2 °C 14.1 °C 1013.2 hPa NE 3.2 km/h 6.4 km/h 82% 0.0 mm 56 W/m2
11:54 17.3 °C 13.8 °C 1013.2 hPa WNW 3.2 km/h 8 km/h 80% 0.0 mm 53 W/m2
11:59 17.5 °C 13.8 °C 1013.2 hPa ENE 3.2 km/h 6.4 km/h 79% 0.0 mm 54 W/m2
12:04 17.8 °C 13.9 °C 1013.2 hPa WNW 6.4 km/h 12.9 km/h 78% 0.0 mm 54 W/m2
12:09 18.1 °C 13.8 °C 1013.2 hPa West 4.7 km/h 12.9 km/h 76% 0.0 mm 58 W/m2
12:14 18.2 °C 13.7 °C 1013.2 hPa West 3.2 km/h 11.3 km/h 75% 0.0 mm 65 W/m2
12:19 18.3 °C 14 °C 1012.9 hPa WNW 1.4 km/h 4.8 km/h 76% 0.0 mm 54 W/m2
12:24 18.4 °C 13.9 °C 1012.9 hPa NW 1.4 km/h 1.6 km/h 75% 0.0 mm 70 W/m2
12:29 18.5 °C 14 °C 1013.2 hPa NNW 3.2 km/h 6.4 km/h 75% 0.0 mm 70 W/m2
12:34 18.7 °C 14 °C 1013.2 hPa NE 1.4 km/h 6.4 km/h 74% 0.0 mm 105 W/m2
12:39 18.8 °C 13.9 °C 1012.9 hPa East 1.4 km/h 8 km/h 73% 0.0 mm 107 W/m2
12:44 18.8 °C 13.9 °C 1012.9 hPa Calm   6.4 km/h 73% 0.0 mm 165 W/m2
12:49 18.9 °C 14 °C 1012.9 hPa WNW 3.2 km/h 6.4 km/h 73% 0.0 mm 207 W/m2
12:54 18.9 °C 14 °C 1012.9 hPa NW 1.4 km/h 6.4 km/h 73% 0.0 mm 494 W/m2
12:59 19.1 °C 13.9 °C 1012.9 hPa WSW 6.4 km/h 14.5 km/h 72% 0.0 mm 144 W/m2
13:04 19.2 °C 14 °C 1012.9 hPa East 1.4 km/h 4.8 km/h 72% 0.0 mm 165 W/m2
13:09 19.3 °C 14.1 °C 1012.9 hPa NW 3.2 km/h 20.9 km/h 72% 0.0 mm 190 W/m2
13:14 19.4 °C 14.2 °C 1012.5 hPa North 3.2 km/h 8 km/h 72% 0.0 mm 128 W/m2
13:19 19.6 °C 14.2 °C 1012.5 hPa WNW 6.4 km/h 19.3 km/h 71% 0.0 mm 90 W/m2
13:24 19.7 °C 14.1 °C 1012.5 hPa WNW 4.7 km/h 6.4 km/h 70% 0.0 mm 83 W/m2
13:30 19.7 °C 13.9 °C 1012.5 hPa WNW 4.7 km/h 16.1 km/h 69% 0.0 mm 137 W/m2
13:35 19.8 °C 14.2 °C 1012.5 hPa WNW 1.4 km/h 6.4 km/h 70% 0.0 mm 207 W/m2
13:40 19.9 °C 14.3 °C 1012.5 hPa SW 1.4 km/h 14.5 km/h 70% 0.0 mm 156 W/m2
13:45 20.1 °C 14.2 °C 1012.5 hPa WNW 4.7 km/h 9.7 km/h 69% 0.0 mm 200 W/m2
13:50 20.2 °C 14.6 °C 1012.5 hPa NW 3.2 km/h 6.4 km/h 70% 0.0 mm 193 W/m2
13:55 20.3 °C 14.6 °C 1012.2 hPa WNW 3.2 km/h 4.8 km/h 70% 0.0 mm 135 W/m2
14:00 20.3 °C 14.2 °C 1012.2 hPa West 1.4 km/h 11.3 km/h 68% 0.0 mm 137 W/m2
14:05 20.2 °C 14.3 °C 1012.2 hPa WNW 1.4 km/h 4.8 km/h 69% 0.0 mm 185 W/m2
14:10 20.3 °C 14.4 °C 1012.2 hPa WNW 4.7 km/h 4.8 km/h 69% 0.0 mm 176 W/m2
14:15 20.3 °C 14.4 °C 1012.2 hPa West 3.2 km/h 6.4 km/h 69% 0.0 mm 149 W/m2
14:20 20.4 °C 14.3 °C 1012.2 hPa West 4.7 km/h 12.9 km/h 68% 0.0 mm 158 W/m2
14:25 20.5 °C 14.4 °C 1012.2 hPa WNW 1.4 km/h 6.4 km/h 68% 0.0 mm 95 W/m2
14:30 20.6 °C 14.7 °C 1011.9 hPa WNW 11.1 km/h 16.1 km/h 69% 0.0 mm 90 W/m2
14:35 20.6 °C 14.7 °C 1011.9 hPa WNW 4.7 km/h 6.4 km/h 69% 0.0 mm 83 W/m2
14:40 20.6 °C 14.5 °C 1011.9 hPa WNW 7.9 km/h 14.5 km/h 68% 0.0 mm 102 W/m2
14:45 20.6 °C 14.3 °C 1011.9 hPa NW 1.4 km/h 8 km/h 67% 0.0 mm 102 W/m2
14:50 20.6 °C 14.3 °C 1011.9 hPa NNW 1.4 km/h 14.5 km/h 67% 0.0 mm 139 W/m2
14:55 20.6 °C 14.3 °C 1011.9 hPa NNE 4.7 km/h 8 km/h 67% 0.0 mm 183 W/m2
15:00 20.6 °C 14.3 °C 1011.9 hPa NW 1.4 km/h 14.5 km/h 67% 0.0 mm 148 W/m2
15:05 20.6 °C 14.3 °C 1012.2 hPa West 11.1 km/h 11.3 km/h 67% 0.0 mm 176 W/m2
15:10 20.6 °C 14 °C 1012.2 hPa WNW 6.4 km/h 16.1 km/h 66% 0.0 mm 137 W/m2
15:15 20.5 °C 13.9 °C 1012.2 hPa WNW 7.9 km/h 9.7 km/h 66% 0.0 mm 130 W/m2
15:20 20.4 °C 14.1 °C 1012.2 hPa SSE 1.4 km/h 8 km/h 67% 0.0 mm 130 W/m2
15:25 20.4 °C 14.1 °C 1011.9 hPa WNW 1.4 km/h 3.2 km/h 67% 0.0 mm 116 W/m2
15:30 20.4 °C 14.3 °C 1011.9 hPa NNE 3.2 km/h 3.2 km/h 68% 0.0 mm 86 W/m2
15:35 20.3 °C 14 °C 1012.2 hPa South 1.4 km/h 3.2 km/h 67% 0.0 mm 105 W/m2
15:40 20.3 °C 14.2 °C 1011.9 hPa WNW 1.4 km/h 6.4 km/h 68% 0.0 mm 77 W/m2
15:45 20.2 °C 14.1 °C 1011.9 hPa Calm   6.4 km/h 68% 0.0 mm 81 W/m2
15:50 20.2 °C 14.3 °C 1011.9 hPa NW 1.4 km/h 3.2 km/h 69% 0.0 mm 113 W/m2
15:55 20.1 °C 14.5 °C 1011.9 hPa NNW 1.4 km/h 3.2 km/h 70% 0.0 mm 98 W/m2
16:00 20 °C 14.1 °C 1011.9 hPa Calm   3.2 km/h 69% 0.0 mm 79 W/m2
16:05 20 °C 14.4 °C 1011.9 hPa Calm   4.8 km/h 70% 0.0 mm 63 W/m2
16:10 19.9 °C 14.3 °C 1011.9 hPa NW 1.4 km/h 1.6 km/h 70% 0.0 mm 58 W/m2
16:15 19.8 °C 14.8 °C 1011.9 hPa Calm   1.6 km/h 73% 0.0 mm 54 W/m2
16:20 19.6 °C 15 °C 1011.9 hPa Calm   3.2 km/h 75% 0.0 mm 47 W/m2
16:25 19.3 °C 15 °C 1012.2 hPa SE 1.4 km/h 3.2 km/h 76% 0.0 mm 32 W/m2
16:30 19.2 °C 15.3 °C 1012.2 hPa Calm   1.6 km/h 78% 0.0 mm 30 W/m2
16:35 19 °C 15.3 °C 1011.9 hPa SW 1.4 km/h 1.6 km/h 79% 0.0 mm 33 W/m2
16:40 18.8 °C 15.3 °C 1011.9 hPa Calm     80% 0.0 mm 67 W/m2
16:45 18.7 °C 15 °C 1011.9 hPa Calm     79% 0.0 mm 56 W/m2
16:50 18.6 °C 14.9 °C 1011.9 hPa ESE 1.4 km/h 3.2 km/h 79% 0.0 mm 56 W/m2
16:55 18.5 °C 14.6 °C 1011.9 hPa Calm   1.6 km/h 78% 0.0 mm 60 W/m2
17:00 18.5 °C 14.8 °C 1012.2 hPa Calm     79% 0.0 mm 56 W/m2
17:05 18.6 °C 14.7 °C 1012.2 hPa SE 1.4 km/h 1.6 km/h 78% 0.0 mm 65 W/m2
17:10 18.6 °C 14.7 °C 1012.2 hPa NNE 3.2 km/h 4.8 km/h 78% 0.0 mm 72 W/m2
17:15 18.7 °C 14.6 °C 1012.2 hPa NE 3.2 km/h 3.2 km/h 77% 0.0 mm 72 W/m2
17:20 18.8 °C 14.7 °C 1012.2 hPa NE 3.2 km/h 6.4 km/h 77% 0.0 mm 62 W/m2
17:25 18.8 °C 14.9 °C 1012.2 hPa East 3.2 km/h 6.4 km/h 78% 0.0 mm 35 W/m2
17:30 18.7 °C 14.6 °C 1012.2 hPa NE 3.2 km/h 6.4 km/h 77% 0.0 mm 49 W/m2
17:35 18.7 °C 14.4 °C 1012.2 hPa ENE 1.4 km/h 4.8 km/h 76% 0.0 mm 63 W/m2
17:40 18.7 °C 14.4 °C 1012.2 hPa Calm   6.4 km/h 76% 0.0 mm 56 W/m2
17:45 18.7 °C 14.4 °C 1012.2 hPa Calm   4.8 km/h 76% 0.0 mm 32 W/m2
17:50 18.8 °C 14.7 °C 1012.2 hPa NNW 1.4 km/h 1.6 km/h 77% 0.0 mm 30 W/m2
17:55 18.7 °C 14.4 °C 1012.2 hPa Calm   1.6 km/h 76% 0.0 mm 40 W/m2
18:00 18.6 °C 14.5 °C 1012.2 hPa Calm   4.8 km/h 77% 0.0 mm 40 W/m2
18:05 18.6 °C 14.5 °C 1012.5 hPa North 1.4 km/h 3.2 km/h 77% 0.0 mm 39 W/m2
18:10 18.5 °C 14.4 °C 1012.2 hPa North 1.4 km/h 3.2 km/h 77% 0.0 mm 32 W/m2
18:15 18.4 °C 14.5 °C 1012.2 hPa North 1.4 km/h 4.8 km/h 78% 0.0 mm 21 W/m2
18:20 18.3 °C 14.4 °C 1012.2 hPa Calm   1.6 km/h 78% 0.0 mm 12 W/m2
18:25 18.2 °C 14.5 °C 1012.5 hPa NE 1.4 km/h 4.8 km/h 79% 0.0 mm 5 W/m2
18:30 18.1 °C 14.4 °C 1012.5 hPa NNE 1.4 km/h 1.6 km/h 79% 0.0 mm 0 W/m2
18:35 17.7 °C 14.2 °C 1012.5 hPa Calm   3.2 km/h 80% 0.0 mm 0 W/m2
18:40 17.5 °C 14.2 °C 1012.5 hPa NNW 1.4 km/h 4.8 km/h 81% 0.0 mm 0 W/m2
18:45 17.4 °C 14.3 °C 1012.5 hPa NW 3.2 km/h 4.8 km/h 82% 0.0 mm 0 W/m2
18:50 17.3 °C 14.2 °C 1012.5 hPa NNE 1.4 km/h 4.8 km/h 82% 0.0 mm 0 W/m2
18:55 17.3 °C 14.2 °C 1012.5 hPa NNW 4.7 km/h 6.4 km/h 82% 0.0 mm 0 W/m2
19:00 17.2 °C 14.3 °C 1012.5 hPa North 1.4 km/h 6.4 km/h 83% 0.0 mm 0 W/m2
19:05 17.2 °C 14.3 °C 1012.9 hPa NW 3.2 km/h 4.8 km/h 83% 0.0 mm 0 W/m2
19:10 17.1 °C 14.2 °C 1012.9 hPa East 4.7 km/h 9.7 km/h 83% 0.0 mm 0 W/m2
19:15 17.1 °C 14.2 °C 1012.9 hPa NW 1.4 km/h 6.4 km/h 83% 0.0 mm 0 W/m2
19:20 17.1 °C 14.2 °C 1012.9 hPa NNE 1.4 km/h 12.9 km/h 83% 0.0 mm 0 W/m2
19:25 17 °C 14.1 °C 1012.9 hPa NE 6.4 km/h 8 km/h 83% 0.0 mm 0 W/m2
19:30 17 °C 14.1 °C 1012.9 hPa North 1.4 km/h 12.9 km/h 83% 0.0 mm 0 W/m2
19:35 17 °C 14.1 °C 1012.9 hPa WNW 6.4 km/h 6.4 km/h 83% 0.0 mm 0 W/m2
19:40 16.9 °C 14 °C 1012.9 hPa Calm   4.8 km/h 83% 0.0 mm 0 W/m2
19:45 16.9 °C 14 °C 1012.9 hPa WNW 1.4 km/h 4.8 km/h 83% 0.0 mm 0 W/m2
19:50 16.8 °C 13.9 °C 1012.9 hPa North 1.4 km/h 3.2 km/h 83% 0.0 mm 0 W/m2
19:55 16.8 °C 13.9 °C 1013.2 hPa NW 4.7 km/h 6.4 km/h 83% 0.0 mm 0 W/m2
20:00 16.8 °C 13.9 °C 1012.9 hPa Calm   3.2 km/h 83% 0.0 mm 0 W/m2
20:05 16.8 °C 14.1 °C 1012.9 hPa WNW 4.7 km/h 8 km/h 84% 0.0 mm 0 W/m2
20:10 16.8 °C 14.1 °C 1012.9 hPa Calm   3.2 km/h 84% 0.0 mm 0 W/m2
20:15 16.8 °C 14.1 °C 1013.2 hPa North 1.4 km/h 4.8 km/h 84% 0.0 mm 0 W/m2
20:20 16.8 °C 14.1 °C 1013.2 hPa NE 1.4 km/h 4.8 km/h 84% 0.0 mm 0 W/m2
20:25 16.8 °C 14.1 °C 1013.2 hPa Calm   4.8 km/h 84% 0.0 mm 0 W/m2
20:30 16.7 °C 14 °C 1013.2 hPa NNW 1.4 km/h 3.2 km/h 84% 0.0 mm 0 W/m2
20:35 16.7 °C 14 °C 1013.2 hPa Calm   4.8 km/h 84% 0.0 mm 0 W/m2
20:40 16.6 °C 13.9 °C 1012.9 hPa NNW 1.4 km/h 4.8 km/h 84% 0.0 mm 0 W/m2
20:45 16.6 °C 14.1 °C 1012.9 hPa NNW 4.7 km/h 4.8 km/h 85% 0.0 mm 0 W/m2
20:50 16.6 °C 14.1 °C 1012.9 hPa WNW 4.7 km/h 6.4 km/h 85% 0.0 mm 0 W/m2
20:55 16.6 °C 14.1 °C 1012.9 hPa Calm   4.8 km/h 85% 0.0 mm 0 W/m2
21:00 16.5 °C 14 °C 1013.2 hPa Calm   3.2 km/h 85% 0.0 mm 0 W/m2
21:05 16.5 °C 14 °C 1013.2 hPa NNE 1.4 km/h 1.6 km/h 85% 0.0 mm 0 W/m2
21:10 16.4 °C 14.1 °C 1013.2 hPa NNE 3.2 km/h 4.8 km/h 86% 0.0 mm 0 W/m2
21:15 16.4 °C 14.1 °C 1012.9 hPa NNW 4.7 km/h 6.4 km/h 86% 0.0 mm 0 W/m2
21:20 16.4 °C 14.1 °C 1013.2 hPa NNW 3.2 km/h 9.7 km/h 86% 0.0 mm 0 W/m2
21:25 16.3 °C 14 °C 1012.9 hPa NNE 4.7 km/h 4.8 km/h 86% 0.0 mm 0 W/m2
21:30 16.3 °C 14 °C 1012.9 hPa NNW 1.4 km/h 8 km/h 86% 0.0 mm 0 W/m2
21:35 16.3 °C 14.1 °C 1012.9 hPa Calm   1.6 km/h 87% 0.0 mm 0 W/m2
21:40 16.2 °C 14 °C 1012.9 hPa Calm   4.8 km/h 87% 0.0 mm 0 W/m2
21:45 16.2 °C 14 °C 1012.9 hPa ENE 1.4 km/h 8 km/h 87% 0.0 mm 0 W/m2
21:50 16.2 °C 14 °C 1012.9 hPa NNW 3.2 km/h 6.4 km/h 87% 0.0 mm 0 W/m2
21:55 16.1 °C 14.1 °C 1013.2 hPa NW 4.7 km/h 6.4 km/h 88% 0.0 mm 0 W/m2
22:00 16.1 °C 14.1 °C 1012.9 hPa ENE 3.2 km/h 6.4 km/h 88% 0.0 mm 0 W/m2
22:05 16 °C 14 °C 1012.9 hPa ENE 1.4 km/h 3.2 km/h 88% 0.0 mm 0 W/m2
22:10 15.9 °C 13.9 °C 1012.9 hPa WNW 1.4 km/h 6.4 km/h 88% 0.0 mm 0 W/m2
22:15 15.9 °C 14.1 °C 1012.9 hPa Calm   3.2 km/h 89% 0.0 mm 0 W/m2
22:20 15.8 °C 14 °C 1012.9 hPa ENE 1.4 km/h 4.8 km/h 89% 0.0 mm 0 W/m2
22:25 15.8 °C 14 °C 1012.9 hPa ENE 1.4 km/h 3.2 km/h 89% 0.0 mm 0 W/m2
22:30 15.8 °C 14 °C 1013.2 hPa Calm   4.8 km/h 89% 0.0 mm 0 W/m2
22:35 15.8 °C 14 °C 1013.2 hPa Calm   3.2 km/h 89% 0.0 mm 0 W/m2
22:40 15.7 °C 13.9 °C 1013.2 hPa NE 1.4 km/h 4.8 km/h 89% 0.0 mm 0 W/m2
22:45 15.7 °C 14.1 °C 1013.2 hPa Calm   3.2 km/h 90% 0.0 mm 0 W/m2
22:50 15.6 °C 14 °C 1013.2 hPa ENE 3.2 km/h 3.2 km/h 90% 0.0 mm 0 W/m2
22:55 15.5 °C 13.9 °C 1013.2 hPa Calm   1.6 km/h 90% 0.0 mm 0 W/m2
23:00 15.4 °C 13.9 °C 1013.2 hPa ENE 3.2 km/h 3.2 km/h 91% 0.0 mm 0 W/m2
23:05 15.3 °C 13.8 °C 1013.2 hPa Calm   4.8 km/h 91% 0.0 mm 0 W/m2
23:10 15.3 °C 14 °C 1013.2 hPa NE 3.2 km/h 4.8 km/h 92% 0.0 mm 0 W/m2
23:15 15.2 °C 13.7 °C 1013.2 hPa NE 6.4 km/h 6.4 km/h 91% 0.0 mm 0 W/m2
23:20 15.2 °C 13.9 °C 1013.2 hPa Calm   3.2 km/h 92% 0.0 mm 0 W/m2
23:25 15.1 °C 13.8 °C 1013.2 hPa Calm   6.4 km/h 92% 0.0 mm 0 W/m2
23:30 15.1 °C 13.8 °C 1013.2 hPa ESE 1.4 km/h 3.2 km/h 92% 0.0 mm 0 W/m2
23:35 15 °C 13.7 °C 1013.2 hPa Calm   1.6 km/h 92% 0.0 mm 0 W/m2
23:40 14.9 °C 13.6 °C 1013.2 hPa NE 1.4 km/h 4.8 km/h 92% 0.0 mm 0 W/m2
23:45 14.9 °C 13.6 °C 1012.9 hPa Calm   3.2 km/h 92% 0.0 mm 0 W/m2
23:50 14.9 °C 13.6 °C 1012.9 hPa Calm   1.6 km/h 92% 0.0 mm 0 W/m2
23:55 14.8 °C 13.7 °C 1012.9 hPa Calm     93% 0.0 mm 0 W/m2
Juneau County Weather
Compliments of Weather Underground - 4 mb